Archival Weather

Yakutsk

Yakutsk, Russia (UEEE)

Report from: Tuesday, June 6, 2023 6:30 AM JST
Current time: Wednesday, May 29, 2024 4:35 PM JST

Current weather – Weather history – Daily summaries
Weather forecast

Temperature12.0°C (53.6°F)
Dew point4.0°C (39.2°F)
Winds 9.7 kts (5 m/s, 11.2 mph) West-Northwest (300°)
Clouds Sky clear
Altimeter29.53 in.Hg (1000 mB)
Precip. events QF 8:21 AM
Relative humidity58 %
Density altitude214 ft. (65 m)
Remarks Ceiling and visibility OK
No significant changes expected in the next two hours
Flight conditions Visual Meteorological Conditions
Raw dataUEEE 052130Z 30005MPS CAVOK 12/04 Q1000 R05/09//60 NOSIG RMK QFE741
An error has occurred. This application may no longer respond until reloaded. Reload 🗙